Time;durP1;ratioP1;P1;durP2;ratioP2;P2;SDS_P1;SDS_P2;PMS_P1;PMS_P2;Temp;Humidity;BMP_temperature;BMP_pressure;BME280_temperature;BME280_humidity;BME280_pressure;Samples;Min_cycle;Max_cycle;Signal;HPM_P1;HPM_P2
2023/01/21 00:01:03;;;;;;;;;;;;;;;1.02;96.01;102693.75;5098015;28;19916;-78
2023/01/21 00:03:28;;;;;;;;;;;;;;;1.00;95.83;102692.84;5093953;28;20243;-78
2023/01/21 00:05:54;;;;;;;;;;;;;;;1.01;96.15;102704.88;5086075;28;20219;-78
2023/01/21 00:08:19;;;;;;;;;;;;;;;1.01;96.07;102696.28;5087530;28;20166;-78
2023/01/21 00:10:45;;;;;;;;;;;;;;;1.02;96.07;102705.75;5088177;28;19991;-78
2023/01/21 00:13:10;;;;;;;;;;;;;;;1.03;96.44;102708.38;5087335;28;20199;-78
2023/01/21 00:15:35;;;;;;;;;;;;;;;1.00;96.08;102713.47;5085647;28;20206;-78
2023/01/21 00:18:00;;;;;;;;;;;;;;;1.00;95.75;102708.31;5087238;28;19951;-78
2023/01/21 00:20:26;;;;;;;;;;;;;;;1.03;96.37;102712.69;5096559;28;19932;-78
2023/01/21 00:22:54;;;;;;;;;;;;;;;1.00;96.40;102713.47;5079561;28;20101;-78
2023/01/21 00:25:20;;;;;;;;;;;;;;;0.99;96.39;102711.72;5081025;28;19917;-78
2023/01/21 00:27:45;;;;;;;;;;;;;;;0.98;95.80;102721.97;5096299;28;19968;-78
2023/01/21 00:30:11;;;;;;;;;;;;;;;0.97;95.90;102723.69;5098042;28;19920;-78
2023/01/21 00:32:36;;;;;;;;;;;;;;;0.92;95.27;102733.00;5097445;28;19979;-78
2023/01/21 00:35:01;;;;;;;;;;;;;;;0.92;95.58;102735.59;5094860;28;19928;-78
2023/01/21 00:37:26;;;;;;;;;;;;;;;0.88;95.54;102734.63;5077540;28;20210;-78
2023/01/21 00:39:52;;;;;;;;;;;;;;;0.81;94.76;102737.84;5082976;28;19931;-78
2023/01/21 00:42:17;;;;;;;;;;;;;;;0.81;95.13;102743.00;5096845;28;19924;-78
2023/01/21 00:44:43;;;;;;;;;;;;;;;0.78;95.07;102755.78;5091613;28;19924;-78
2023/01/21 00:47:08;;;;;;;;;;;;;;;0.72;94.65;102755.63;5097332;28;19956;-78
2023/01/21 00:49:33;;;;;;;;;;;;;;;0.74;94.70;102759.13;5096469;28;19998;-78
2023/01/21 00:51:59;;;;;;;;;;;;;;;0.76;95.83;102760.03;5096482;28;19920;-78
2023/01/21 00:54:24;;;;;;;;;;;;;;;0.81;96.23;102760.19;5076190;28;20007;-78
2023/01/21 00:56:49;;;;;;;;;;;;;;;0.84;96.67;102768.91;5083251;28;19916;-78
2023/01/21 00:59:15;;;;;;;;;;;;;;;0.86;96.63;102772.41;5095788;28;19916;-78
2023/01/21 01:01:40;;;;;;;;;;;;;;;0.91;97.03;102775.09;5089000;28;19967;-78
2023/01/21 01:04:06;;;;;;;;;;;;;;;0.95;97.29;102769.22;5081817;28;19958;-78
2023/01/21 01:06:31;;;;;;;;;;;;;;;0.98;97.59;102771.88;5092324;28;20065;-78
2023/01/21 01:08:57;;;;;;;;;;;;;;;1.00;97.50;102783.16;5092486;28;19908;-78
2023/01/21 01:11:25;;;;;;;;;;;;;;;1.01;97.50;102781.44;5082341;28;20187;-78
2023/01/21 01:13:51;;;;;;;;;;;;;;;1.01;97.33;102784.88;5077676;28;19961;-78
2023/01/21 01:16:16;;;;;;;;;;;;;;;1.01;97.43;102784.88;5082586;28;19920;-78
2023/01/21 01:18:42;;;;;;;;;;;;;;;1.03;97.53;102795.25;5077947;28;19916;-78
2023/01/21 01:21:10;;;;;;;;;;;;;;;1.03;97.58;102793.53;5083778;28;19932;-78
2023/01/21 01:23:35;;;;;;;;;;;;;;;1.03;97.61;102792.66;5077266;28;19944;-78
2023/01/21 01:26:02;;;;;;;;;;;;;;;1.04;97.64;102797.00;5083366;28;19923;-78
2023/01/21 01:28:28;;;;;;;;;;;;;;;1.04;97.55;102797.00;5091536;28;19908;-78
2023/01/21 01:30:53;;;;;;;;;;;;;;;1.05;97.83;102793.59;5096123;28;19954;-78
2023/01/21 01:33:19;;;;;;;;;;;;;;;1.07;98.11;102799.66;5095759;28;19916;-78
2023/01/21 01:35:46;;;;;;;;;;;;;;;1.09;98.15;102808.31;5086970;28;19953;-78
2023/01/21 01:38:12;;;;;;;;;;;;;;;1.07;98.30;102799.66;5078197;28;20227;-78
2023/01/21 01:40:39;;;;;;;;;;;;;;;1.09;98.23;102800.56;5082848;28;19961;-78
2023/01/21 01:43:11;;;;;;;;;;;;;;;1.08;98.46;102804.88;5079769;28;19919;-78
2023/01/21 01:45:36;;;;;;;;;;;;;;;1.07;97.76;102813.44;5092212;28;19912;-78
2023/01/21 01:48:05;;;;;;;;;;;;;;;1.07;97.99;102815.16;5095915;28;20131;-78
2023/01/21 01:50:32;;;;;;;;;;;;;;;1.06;97.97;102818.56;5087703;28;19928;-78
2023/01/21 01:52:59;;;;;;;;;;;;;;;1.06;98.04;102818.56;5089885;28;19912;-78
2023/01/21 01:55:25;;;;;;;;;;;;;;;1.04;98.17;102823.69;5079485;28;19919;-78
2023/01/21 01:57:53;;;;;;;;;;;;;;;1.05;97.98;102829.72;5081513;28;19920;-78
2023/01/21 02:00:19;;;;;;;;;;;;;;;1.03;98.24;102829.66;5078972;28;19924;-78
2023/01/21 02:03:43;;;;;;;;;;;;;;;1.02;97.70;102838.25;5080645;28;20128;-78
2023/01/21 02:05:30;;;;;;;;;;;;;;;1.02;98.01;102840.81;5087855;28;19916;-78
2023/01/21 02:07:55;;;;;;;;;;;;;;;1.02;98.10;102851.16;5096858;28;19920;-78
2023/01/21 02:10:21;;;;;;;;;;;;;;;1.03;98.38;102852.88;5088716;28;19916;-78
2023/01/21 02:12:46;;;;;;;;;;;;;;;1.03;98.24;102863.19;5089743;28;19931;-78
2023/01/21 02:15:11;;;;;;;;;;;;;;;1.04;98.44;102858.94;5096578;28;20123;-78
2023/01/21 02:17:50;;;;;;;;;;;;;;;1.04;98.63;102867.56;5082162;28;19939;-78
2023/01/21 02:20:27;;;;;;;;;;;;;;;1.07;98.92;102866.75;5087149;28;19923;-78
2023/01/21 02:23:00;;;;;;;;;;;;;;;1.07;99.02;102874.50;5098672;28;20105;-78
2023/01/21 02:25:37;;;;;;;;;;;;;;;1.09;99.13;102872.84;5100010;28;19908;-78
2023/01/21 02:28:11;;;;;;;;;;;;;;;1.10;99.29;102877.19;5099684;28;19920;-78
2023/01/21 02:30:37;;;;;;;;;;;;;;;1.11;99.36;102884.97;5099857;28;19915;-78
2023/01/21 02:33:14;;;;;;;;;;;;;;;1.12;99.51;102889.28;5091119;28;19959;-78
2023/01/21 02:35:58;;;;;;;;;;;;;;;1.12;99.79;102891.88;5080457;28;19909;-78
2023/01/21 02:38:38;;;;;;;;;;;;;;;1.13;99.76;102896.22;5090337;28;19920;-78
2023/01/21 02:41:09;;;;;;;;;;;;;;;1.13;100.00;102913.44;5080724;28;19960;-78
2023/01/21 02:43:40;;;;;;;;;;;;;;;1.13;99.87;102922.03;5090531;28;19928;-78
2023/01/21 02:46:15;;;;;;;;;;;;;;;1.12;100.00;102930.59;5080438;28;19916;-78
2023/01/21 02:49:03;;;;;;;;;;;;;;;1.12;100.00;102935.75;5095751;28;19918;-78
2023/01/21 02:51:28;;;;;;;;;;;;;;;1.11;100.00;102939.19;5097990;28;20199;-78
2023/01/21 02:53:53;;;;;;;;;;;;;;;1.12;100.00;102940.03;5094973;28;19924;-77
2023/01/21 02:56:25;;;;;;;;;;;;;;;1.09;100.00;102940.84;5097772;28;19955;-78
2023/01/21 02:58:59;;;;;;;;;;;;;;;1.08;100.00;102941.66;5094290;28;19920;-78
2023/01/21 03:01:24;;;;;;;;;;;;;;;1.08;100.00;102936.50;5079843;28;20152;-78
2023/01/21 03:04:01;;;;;;;;;;;;;;;1.08;100.00;102930.47;5086462;28;20242;-78
2023/01/21 03:06:52;;;;;;;;;;;;;;;1.08;100.00;102938.19;5080384;28;19928;-78
2023/01/21 03:09:22;;;;;;;;;;;;;;;1.08;100.00;102935.63;5090762;28;19954;-78
2023/01/21 03:11:52;;;;;;;;;;;;;;;1.09;100.00;102943.41;5099414;28;19930;-78
2023/01/21 03:17:18;;;;;;;;;;;;;;;1.07;100.00;102941.59;5079987;28;20055;-77
2023/01/21 03:19:49;;;;;;;;;;;;;;;1.07;100.00;102947.63;5095045;28;20048;-78
2023/01/21 03:22:16;;;;;;;;;;;;;;;1.06;100.00;102955.34;5090319;28;20191;-77
2023/01/21 03:24:43;;;;;;;;;;;;;;;1.04;100.00;102944.97;5094894;28;19912;-78
2023/01/21 03:27:10;;;;;;;;;;;;;;;1.04;100.00;102954.44;5097167;28;19920;-78
2023/01/21 03:29:38;;;;;;;;;;;;;;;1.03;100.00;102955.22;5098471;28;19920;-78
2023/01/21 03:32:05;;;;;;;;;;;;;;;1.00;100.00;102953.44;5094482;28;19968;-78
2023/01/21 03:34:34;;;;;;;;;;;;;;;0.99;100.00;102955.97;5098597;28;20089;-78
2023/01/21 03:37:06;;;;;;;;;;;;;;;0.98;100.00;102961.94;5098160;28;19908;-78
2023/01/21 03:39:47;;;;;;;;;;;;;;;0.95;100.00;102962.72;5087382;28;20203;-78
2023/01/21 03:42:13;;;;;;;;;;;;;;;0.92;100.00;102963.50;5081950;28;19916;-78
2023/01/21 03:44:39;;;;;;;;;;;;;;;0.91;100.00;102974.66;5087422;28;20254;-78
2023/01/21 03:47:04;;;;;;;;;;;;;;;0.90;100.00;102972.00;5099077;28;19916;-78
2023/01/21 03:49:33;;;;;;;;;;;;;;;0.87;100.00;102975.34;5095939;28;19954;-78
2023/01/21 03:52:00;;;;;;;;;;;;;;;0.86;100.00;102970.16;5099314;28;19931;-78
2023/01/21 03:54:25;;;;;;;;;;;;;;;0.85;100.00;102969.25;5087198;28;19954;-78
2023/01/21 03:56:51;;;;;;;;;;;;;;;0.84;100.00;102975.28;5088724;28;20142;-78
2023/01/21 03:59:16;;;;;;;;;;;;;;;0.83;100.00;102981.25;5098430;28;19923;-78
2023/01/21 04:01:41;;;;;;;;;;;;;;;0.82;100.00;102976.91;5097912;28;19985;-78
2023/01/21 04:04:07;;;;;;;;;;;;;;;0.81;100.00;102979.44;5090116;28;19940;-77
2023/01/21 04:06:33;;;;;;;;;;;;;;;0.80;100.00;102973.41;5085997;28;19924;-77
2023/01/21 04:08:58;;;;;;;;;;;;;;;0.79;100.00;102974.22;5086117;28;19916;-77
2023/01/21 04:11:24;;;;;;;;;;;;;;;0.78;100.00;102982.78;5086838;28;19924;-77
2023/01/21 04:13:49;;;;;;;;;;;;;;;0.77;100.00;102979.34;5084651;28;19916;-77
2023/01/21 04:16:14;;;;;;;;;;;;;;;0.76;100.00;102990.50;5087307;28;20073;-78
2023/01/21 04:18:39;;;;;;;;;;;;;;;0.76;100.00;102987.00;5079984;28;20238;-77
2023/01/21 04:21:05;;;;;;;;;;;;;;;0.75;100.00;102987.84;5090281;28;20228;-77
2023/01/21 04:23:30;;;;;;;;;;;;;;;0.75;100.00;102990.44;5086185;28;19931;-77
2023/01/21 04:25:55;;;;;;;;;;;;;;;0.72;100.00;102991.19;5083087;28;19948;-78
2023/01/21 04:28:20;;;;;;;;;;;;;;;0.71;100.00;102988.56;5078357;28;20112;-77
2023/01/21 04:30:46;;;;;;;;;;;;;;;0.71;100.00;102983.41;5097407;28;19916;-77
2023/01/21 04:33:12;;;;;;;;;;;;;;;0.71;100.00;102988.56;5088869;28;19965;-77
2023/01/21 04:35:37;;;;;;;;;;;;;;;0.70;100.00;102995.41;5080118;28;20203;-77
2023/01/21 04:38:02;;;;;;;;;;;;;;;0.71;100.00;102998.88;5083818;28;19920;-77
2023/01/21 04:40:28;;;;;;;;;;;;;;;0.70;100.00;103003.16;5087003;28;20010;-77
2023/01/21 04:42:53;;;;;;;;;;;;;;;0.69;100.00;103001.41;5082314;28;20203;-77
2023/01/21 04:45:18;;;;;;;;;;;;;;;0.68;100.00;102993.63;5088856;28;19922;-78
2023/01/21 04:47:44;;;;;;;;;;;;;;;0.68;100.00;102998.78;5095209;28;19963;-77
2023/01/21 04:50:10;;;;;;;;;;;;;;;0.69;100.00;103004.00;5084070;28;19912;-77
2023/01/21 04:52:35;;;;;;;;;;;;;;;0.68;100.00;102998.78;5089307;28;19916;-77
2023/01/21 04:55:01;;;;;;;;;;;;;;;0.68;100.00;102998.78;5097516;28;20207;-77
2023/01/21 04:57:26;;;;;;;;;;;;;;;0.69;100.00;103008.25;5089438;28;19920;-77
2023/01/21 04:59:51;;;;;;;;;;;;;;;0.68;100.00;103003.94;5096846;28;19924;-77
2023/01/21 05:02:16;;;;;;;;;;;;;;;0.68;100.00;102999.66;5098040;28;19935;-77
2023/01/21 05:04:42;;;;;;;;;;;;;;;0.68;100.00;103004.81;5098002;28;19912;-77
2023/01/21 05:07:07;;;;;;;;;;;;;;;0.69;100.00;103016.00;5085651;28;20026;-77
2023/01/21 05:09:33;;;;;;;;;;;;;;;0.68;100.00;103009.09;5094439;28;19916;-77
2023/01/21 05:11:58;;;;;;;;;;;;;;;0.67;100.00;103010.78;5088256;28;19924;-77
2023/01/21 05:14:23;;;;;;;;;;;;;;;0.67;100.00;103012.50;5077898;28;19919;-77
2023/01/21 05:16:48;;;;;;;;;;;;;;;0.67;100.00;103022.81;5091838;28;19916;-77
2023/01/21 05:19:14;;;;;;;;;;;;;;;0.65;100.00;103019.28;5096389;28;19994;-78
2023/01/21 05:21:39;;;;;;;;;;;;;;;0.66;100.00;103026.22;5092328;28;19966;-77
2023/01/21 05:24:04;;;;;;;;;;;;;;;0.65;100.00;103027.03;5078171;28;19915;-77
2023/01/21 05:26:30;;;;;;;;;;;;;;;0.62;100.00;103026.91;5095185;28;19924;-77
2023/01/21 05:28:55;;;;;;;;;;;;;;;0.61;100.00;103026.03;5096172;28;19912;-77
2023/01/21 05:31:20;;;;;;;;;;;;;;;0.61;100.00;103031.22;5096271;28;20200;-77
2023/01/21 05:33:46;;;;;;;;;;;;;;;0.62;100.00;103026.91;5097483;28;20247;-77
2023/01/21 05:36:12;;;;;;;;;;;;;;;0.62;100.00;103032.97;5097368;28;19920;-77
2023/01/21 05:38:37;;;;;;;;;;;;;;;0.62;100.00;103042.38;5078550;28;20112;-77
2023/01/21 05:41:04;;;;;;;;;;;;;;;0.60;100.00;103044.94;5090108;28;19951;-77
2023/01/21 05:43:29;;;;;;;;;;;;;;;0.60;100.00;103055.25;5095086;28;19923;-77
2023/01/21 05:45:55;;;;;;;;;;;;;;;0.60;100.00;103052.69;5097032;28;19951;-77
2023/01/21 05:48:20;;;;;;;;;;;;;;;0.61;100.00;103058.72;5077246;28;19908;-77
2023/01/21 05:50:46;;;;;;;;;;;;;;;0.59;100.00;103056.06;5078531;28;19920;-77
2023/01/21 05:53:12;;;;;;;;;;;;;;;0.59;100.00;103056.06;5099991;28;20306;-77
2023/01/21 05:55:38;;;;;;;;;;;;;;;0.60;100.00;103054.34;5084367;28;20149;-77
2023/01/21 05:58:03;;;;;;;;;;;;;;;0.59;100.00;103062.94;5089400;28;20430;-77
2023/01/21 06:00:28;;;;;;;;;;;;;;;0.58;100.00;103074.94;5081084;28;19925;-77
2023/01/21 06:02:53;;;;;;;;;;;;;;;0.58;100.00;103080.09;5094870;28;19920;-77
2023/01/21 06:05:19;;;;;;;;;;;;;;;0.57;100.00;103079.22;5088719;28;19920;-77
2023/01/21 06:07:44;;;;;;;;;;;;;;;0.57;100.00;103083.50;5094160;28;19924;-77
2023/01/21 06:10:09;;;;;;;;;;;;;;;0.56;100.00;103092.94;5091614;28;19987;-77
2023/01/21 06:12:35;;;;;;;;;;;;;;;0.55;100.00;103093.75;5087002;28;20093;-77
2023/01/21 06:15:00;;;;;;;;;;;;;;;0.55;100.00;103095.47;5081601;28;20214;-77
2023/01/21 06:17:25;;;;;;;;;;;;;;;0.55;100.00;103104.06;5090032;28;19922;-77
2023/01/21 06:19:51;;;;;;;;;;;;;;;0.53;100.00;103105.72;5094653;28;20200;-77
2023/01/21 06:22:16;;;;;;;;;;;;;;;0.54;100.00;103101.44;5097673;28;19920;-77
2023/01/21 06:24:42;;;;;;;;;;;;;;;0.53;100.00;103100.56;5101113;28;19954;-77
2023/01/21 06:27:07;;;;;;;;;;;;;;;0.53;100.00;103108.28;5085770;28;20135;-77
2023/01/21 06:29:32;;;;;;;;;;;;;;;0.52;100.00;103111.69;5098451;28;19924;-77
2023/01/21 06:31:58;;;;;;;;;;;;;;;0.50;100.00;103113.31;5100767;28;19916;-77
2023/01/21 06:34:23;;;;;;;;;;;;;;;0.50;100.00;103120.19;5090892;28;19920;-77
2023/01/21 06:36:49;;;;;;;;;;;;;;;0.49;100.00;103116.75;5081092;28;19933;-78
2023/01/21 06:39:14;;;;;;;;;;;;;;;0.49;100.00;103118.41;5097510;28;20245;-78
2023/01/21 06:41:39;;;;;;;;;;;;;;;0.48;100.00;103122.72;5100085;28;20126;-77
2023/01/21 06:44:05;;;;;;;;;;;;;;;0.48;100.00;103125.28;5093927;28;19999;-77
2023/01/21 06:46:30;;;;;;;;;;;;;;;0.49;100.00;103128.72;5080284;28;19916;-77
2023/01/21 06:48:55;;;;;;;;;;;;;;;0.49;100.00;103133.88;5096195;28;20214;-77
2023/01/21 06:51:21;;;;;;;;;;;;;;;0.49;100.00;103141.63;5092644;28;19946;-77
2023/01/21 06:53:46;;;;;;;;;;;;;;;0.48;100.00;103140.75;5094416;28;19974;-77
2023/01/21 06:56:12;;;;;;;;;;;;;;;0.47;100.00;103144.13;5099281;28;19959;-77
2023/01/21 06:58:37;;;;;;;;;;;;;;;0.47;100.00;103148.44;5093480;28;19943;-77
2023/01/21 07:01:02;;;;;;;;;;;;;;;0.46;100.00;103152.72;5098954;28;19920;-77
2023/01/21 07:03:28;;;;;;;;;;;;;;;0.46;100.00;103152.72;5089128;28;19916;-77
2023/01/21 07:05:54;;;;;;;;;;;;;;;0.45;100.00;103161.25;5092100;28;19974;-77
2023/01/21 07:08:19;;;;;;;;;;;;;;;0.45;100.00;103161.25;5095058;28;19920;-77
2023/01/21 07:10:44;;;;;;;;;;;;;;;0.45;100.00;103168.13;5092264;28;19924;-77
2023/01/21 07:13:10;;;;;;;;;;;;;;;0.44;100.00;103168.94;5095800;28;20069;-77
2023/01/21 07:15:35;;;;;;;;;;;;;;;0.44;100.00;103167.25;5095143;28;19932;-78
2023/01/21 07:18:00;;;;;;;;;;;;;;;0.44;100.00;103171.50;5095264;28;19978;-77
2023/01/21 07:20:25;;;;;;;;;;;;;;;0.43;100.00;103174.91;5088881;28;20260;-77
2023/01/21 07:22:51;;;;;;;;;;;;;;;0.43;100.00;103177.50;5085809;28;20211;-77
2023/01/21 07:25:16;;;;;;;;;;;;;;;0.42;100.00;103170.56;5095769;28;19924;-77
2023/01/21 07:27:41;;;;;;;;;;;;;;;0.42;100.00;103168.91;5094672;28;19942;-77
2023/01/21 07:30:07;;;;;;;;;;;;;;;0.42;100.00;103174.06;5091222;28;19924;-77
2023/01/21 07:32:32;;;;;;;;;;;;;;;0.42;100.00;103171.47;5088842;28;19935;-77
2023/01/21 07:34:58;;;;;;;;;;;;;;;0.42;100.00;103179.22;5092119;28;19936;-77
2023/01/21 07:37:23;;;;;;;;;;;;;;;0.41;100.00;103177.44;5092684;28;19916;-77
2023/01/21 07:39:48;;;;;;;;;;;;;;;0.41;100.00;103182.59;5090922;28;19921;-77
2023/01/21 07:42:14;;;;;;;;;;;;;;;0.41;100.00;103182.59;5087895;28;19979;-77
2023/01/21 07:44:39;;;;;;;;;;;;;;;0.41;100.00;103187.75;5090552;28;20286;-77
2023/01/21 07:47:04;;;;;;;;;;;;;;;0.40;100.00;103191.16;5088384;28;19924;-77
2023/01/21 07:49:29;;;;;;;;;;;;;;;0.38;100.00;103193.69;5087610;28;19925;-77
2023/01/21 07:51:55;;;;;;;;;;;;;;;0.37;100.00;103204.78;5090494;28;19916;-77
2023/01/21 07:54:20;;;;;;;;;;;;;;;0.37;100.00;103204.78;5092035;28;19956;-77
2023/01/21 07:56:46;;;;;;;;;;;;;;;0.36;100.00;103207.31;5089697;28;19917;-77
2023/01/21 07:59:12;;;;;;;;;;;;;;;0.35;100.00;103216.75;5093224;28;19924;-77
2023/01/21 08:01:37;;;;;;;;;;;;;;;0.34;100.00;103225.28;5089522;28;20196;-77
2023/01/21 08:04:03;;;;;;;;;;;;;;;0.33;100.00;103226.13;5090012;28;19924;-77
2023/01/21 08:06:28;;;;;;;;;;;;;;;0.32;100.00;103239.81;5091796;28;19924;-78
2023/01/21 08:08:53;;;;;;;;;;;;;;;0.31;100.00;103240.66;5089725;28;20917;-77
2023/01/21 08:11:18;;;;;;;;;;;;;;;0.29;100.00;103250.03;5086960;28;19916;-77
2023/01/21 08:13:43;;;;;;;;;;;;;;;0.29;100.00;103243.97;5087653;28;19920;-77
2023/01/21 08:16:12;;;;;;;;;;;;;;;0.28;100.00;103248.25;5083877;28;19913;-77
2023/01/21 08:18:37;;;;;;;;;;;;;;;0.27;100.00;103250.75;5094415;28;19919;-77
2023/01/21 08:21:03;;;;;;;;;;;;;;;0.27;100.00;103258.50;5087980;28;19955;-77
2023/01/21 08:23:28;;;;;;;;;;;;;;;0.26;100.00;103260.19;5087433;28;20131;-77
2023/01/21 08:25:53;;;;;;;;;;;;;;;0.28;100.00;103266.28;5090603;28;19951;-77
2023/01/21 08:28:19;;;;;;;;;;;;;;;0.27;100.00;103258.50;5084381;28;19952;-77
2023/01/21 08:30:44;;;;;;;;;;;;;;;0.27;100.00;103263.66;5088838;28;20188;-77
2023/01/21 08:33:09;;;;;;;;;;;;;;;0.26;100.00;103259.34;5089459;28;19936;-77
2023/01/21 08:35:35;;;;;;;;;;;;;;;0.26;100.00;103262.78;5089666;28;20245;-77
2023/01/21 08:38:00;;;;;;;;;;;;;;;0.28;100.00;103266.28;5088172;28;19951;-77
2023/01/21 08:40:26;;;;;;;;;;;;;;;0.29;100.00;103268.06;5087860;28;19919;-77
2023/01/21 08:42:58;;;;;;;;;;;;;;;0.29;100.00;103280.97;5088910;28;19913;-77
2023/01/21 08:45:23;;;;;;;;;;;;;;;0.30;100.00;103279.25;5084200;28;20108;-77
2023/01/21 08:47:49;;;;;;;;;;;;;;;0.31;100.00;103287.06;5091850;28;20243;-77
2023/01/21 08:50:14;;;;;;;;;;;;;;;0.31;100.00;103279.31;5089465;28;19920;-77
2023/01/21 08:52:39;;;;;;;;;;;;;;;0.32;100.00;103283.63;5092708;28;20248;-77
2023/01/21 08:55:05;;;;;;;;;;;;;;;0.32;100.00;103287.91;5087893;28;19919;-77
2023/01/21 08:57:30;;;;;;;;;;;;;;;0.34;100.00;103291.44;5086240;28;20223;-77
2023/01/21 08:59:55;;;;;;;;;;;;;;;0.34;100.00;103292.31;5087590;28;19912;-77
2023/01/21 09:02:21;;;;;;;;;;;;;;;0.36;100.00;103293.28;5091124;28;19939;-77
2023/01/21 09:04:46;;;;;;;;;;;;;;;0.37;100.00;103295.03;5090988;28;19991;-77
2023/01/21 09:07:12;;;;;;;;;;;;;;;0.39;100.00;103292.50;5090573;28;19950;-77
2023/01/21 09:09:37;;;;;;;;;;;;;;;0.41;100.00;103295.16;5089525;28;19969;-77
2023/01/21 09:12:04;;;;;;;;;;;;;;;0.43;100.00;103290.94;5089673;28;19920;-77
2023/01/21 09:14:29;;;;;;;;;;;;;;;0.44;100.00;103298.75;5093751;28;20150;-77
2023/01/21 09:16:55;;;;;;;;;;;;;;;0.45;100.00;103286.72;5097324;28;20123;-77
2023/01/21 09:19:21;;;;;;;;;;;;;;;0.47;100.00;103295.41;5096199;28;19970;-77
2023/01/21 09:21:46;;;;;;;;;;;;;;;0.47;100.00;103298.84;5097534;28;19916;-77
2023/01/21 09:24:12;;;;;;;;;;;;;;;0.48;100.00;103298.03;5096692;28;19958;-77
2023/01/21 09:26:42;;;;;;;;;;;;;;;0.49;100.00;103307.56;5084986;28;19924;-77
2023/01/21 09:29:09;;;;;;;;;;;;;;;0.50;100.00;103306.72;5092143;28;19916;-78
2023/01/21 09:31:34;;;;;;;;;;;;;;;0.53;100.00;103308.56;5088720;28;20215;-77
2023/01/21 09:34:02;;;;;;;;;;;;;;;0.52;100.00;103323.13;5095738;28;19950;-77
2023/01/21 09:36:29;;;;;;;;;;;;;;;0.53;100.00;103314.59;5097786;28;19975;-77
2023/01/21 09:38:54;;;;;;;;;;;;;;;0.55;100.00;103317.22;5096280;28;19921;-77
2023/01/21 09:41:22;;;;;;;;;;;;;;;0.55;100.00;103312.06;5086369;28;19916;-77
2023/01/21 09:43:50;;;;;;;;;;;;;;;0.56;100.00;103319.88;5093071;28;20176;-77
2023/01/21 09:46:19;;;;;;;;;;;;;;;0.57;100.00;103323.31;5097270;28;19935;-77
2023/01/21 09:48:46;;;;;;;;;;;;;;;0.59;100.00;103326.84;5097826;28;19928;-77
2023/01/21 09:51:43;;;;;;;;;;;;;;;0.61;100.00;103326.91;5097656;28;19943;-77
2023/01/21 09:54:16;;;;;;;;;;;;;;;0.63;100.00;103333.00;5063603;28;19908;-77
2023/01/21 09:56:47;;;;;;;;;;;;;;;0.64;100.00;103329.59;5077590;28;19931;-77
2023/01/21 09:59:21;;;;;;;;;;;;;;;0.64;100.00;103327.91;5096527;28;19949;-77
2023/01/21 10:01:47;;;;;;;;;;;;;;;0.66;100.00;103340.88;5097887;28;19916;-78
2023/01/21 10:04:38;;;;;;;;;;;;;;;0.64;100.00;103340.81;5098220;28;20002;-78
2023/01/21 10:07:27;;;;;;;;;;;;;;;0.62;100.00;103344.13;5089668;28;19972;-78
2023/01/21 10:10:11;;;;;;;;;;;;;;;0.62;100.00;103338.97;5080350;28;19920;-78
2023/01/21 10:12:57;;;;;;;;;;;;;;;0.62;100.00;103344.13;5095362;28;20251;-77
2023/01/21 10:15:41;;;;;;;;;;;;;;;0.61;100.00;103358.72;5092804;28;20211;-77
2023/01/21 10:18:15;;;;;;;;;;;;;;;0.61;100.00;103351.00;5095397;28;19971;-77
2023/01/21 10:20:49;;;;;;;;;;;;;;;0.62;100.00;103365.66;5090807;28;19964;-78
2023/01/21 10:23:15;;;;;;;;;;;;;;;0.60;100.00;103362.16;5090551;28;19920;-77
2023/01/21 10:25:40;;;;;;;;;;;;;;;0.56;100.00;103361.13;5095887;28;19988;-78
2023/01/21 10:28:15;;;;;;;;;;;;;;;0.52;100.00;103360.94;5090948;28;19966;-77
2023/01/21 10:30:47;;;;;;;;;;;;;;;0.51;100.00;103367.78;5086754;28;19945;-77
2023/01/21 10:33:31;;;;;;;;;;;;;;;0.52;100.00;103368.66;5086510;28;19947;-77
2023/01/21 10:36:02;;;;;;;;;;;;;;;0.49;100.00;103366.84;5092305;28;19947;-77
2023/01/21 10:38:37;;;;;;;;;;;;;;;0.49;100.00;103366.84;5097605;28;19916;-78
2023/01/21 10:41:21;;;;;;;;;;;;;;;0.48;100.00;103359.06;5088238;28;19924;-77
2023/01/21 10:44:15;;;;;;;;;;;;;;;0.44;100.00;103358.03;5094004;28;19923;-77
2023/01/21 10:46:46;;;;;;;;;;;;;;;0.45;100.00;103361.50;5083669;28;20105;-77
2023/01/21 10:49:21;;;;;;;;;;;;;;;0.46;100.00;103365.84;5100507;28;20182;-77
2023/01/21 10:51:53;;;;;;;;;;;;;;;0.43;100.00;103374.31;5100200;28;19996;-77
2023/01/21 10:54:28;;;;;;;;;;;;;;;0.37;100.00;103367.22;5100148;28;19958;-77
2023/01/21 10:56:59;;;;;;;;;;;;;;;0.38;100.00;103362.91;5099590;28;19927;-77
2023/01/21 10:59:27;;;;;;;;;;;;;;;0.37;100.00;103369.78;5099876;28;19950;-77
2023/01/21 11:02:19;;;;;;;;;;;;;;;0.37;100.00;103362.06;5098543;28;19927;-77
2023/01/21 11:04:44;;;;;;;;;;;;;;;0.38;100.00;103365.50;5064163;28;19928;-77
2023/01/21 11:07:11;;;;;;;;;;;;;;;0.37;100.00;103368.91;5099991;28;20230;-77
2023/01/21 11:09:38;;;;;;;;;;;;;;;0.35;100.00;103370.56;5092700;28;19920;-77
2023/01/21 11:12:04;;;;;;;;;;;;;;;0.36;100.00;103372.28;5094956;28;20155;-77
2023/01/21 11:14:29;;;;;;;;;;;;;;;0.38;100.00;103375.81;5097804;28;20007;-77
2023/01/21 11:16:54;;;;;;;;;;;;;;;0.40;100.00;103375.88;5098390;28;20115;-77
2023/01/21 11:19:25;;;;;;;;;;;;;;;0.34;100.00;103377.38;5098939;28;20219;-77
2023/01/21 11:22:03;;;;;;;;;;;;;;;0.34;100.00;103377.38;5099010;28;19958;-77
2023/01/21 11:24:29;;;;;;;;;;;;;;;0.36;100.00;103391.25;5098910;28;19986;-77
2023/01/21 11:26:55;;;;;;;;;;;;;;;0.38;100.00;103386.13;5098750;28;19970;-77
2023/01/21 11:29:22;;;;;;;;;;;;;;;0.39;100.00;103387.91;5098774;28;19987;-77
2023/01/21 11:31:49;;;;;;;;;;;;;;;0.37;100.00;103392.13;5097600;28;20335;-77
2023/01/21 11:34:16;;;;;;;;;;;;;;;0.37;100.00;103399.84;5099086;28;19920;-77
2023/01/21 11:36:54;;;;;;;;;;;;;;;0.36;100.00;103405.81;5098981;28;19951;-77
2023/01/21 11:39:21;;;;;;;;;;;;;;;0.32;100.00;103402.22;5095538;28;19955;-77
2023/01/21 11:41:51;;;;;;;;;;;;;;;0.36;100.00;103404.13;5083041;28;20205;-77
2023/01/21 11:44:17;;;;;;;;;;;;;;;0.38;100.00;103406.75;5091902;28;20250;-77
2023/01/21 11:46:42;;;;;;;;;;;;;;;0.36;100.00;103390.34;5095650;28;20280;-77
2023/01/21 11:49:08;;;;;;;;;;;;;;;0.35;100.00;103397.19;5099061;28;19924;-77
2023/01/21 11:51:33;;;;;;;;;;;;;;;0.36;100.00;103395.50;5098245;28;19927;-77
2023/01/21 11:54:06;;;;;;;;;;;;;;;0.37;100.00;103393.00;5098103;28;19924;-77
2023/01/21 11:56:31;;;;;;;;;;;;;;;0.38;100.00;103394.75;5095442;28;20276;-77
2023/01/21 11:58:57;;;;;;;;;;;;;;;0.41;100.00;103391.41;5096743;28;19924;-77
2023/01/21 12:01:22;;;;;;;;;;;;;;;0.44;100.00;103385.50;5097691;28;19924;-77
2023/01/21 12:03:51;;;;;;;;;;;;;;;0.47;100.00;103385.63;5097430;28;19954;-77
2023/01/21 12:06:18;;;;;;;;;;;;;;;0.51;100.00;103387.53;5083906;28;19916;-76
2023/01/21 12:08:47;;;;;;;;;;;;;;;0.54;100.00;103377.34;5094612;28;19920;-76
2023/01/21 12:11:17;;;;;;;;;;;;;;;0.57;100.00;103380.06;5097677;28;19916;-76
2023/01/21 12:13:43;;;;;;;;;;;;;;;0.61;100.00;103386.22;5093274;28;19936;-77
2023/01/21 12:16:08;;;;;;;;;;;;;;;0.65;100.00;103388.09;5097019;28;20092;-76
2023/01/21 12:18:52;;;;;;;;;;;;;;;0.67;100.00;103379.59;5097192;28;19981;-76
2023/01/21 12:21:35;;;;;;;;;;;;;;;0.70;100.00;103378.88;5096390;28;19931;-77
2023/01/21 12:24:06;;;;;;;;;;;;;;;0.72;100.00;103372.06;5097245;28;19924;-76
2023/01/21 12:26:40;;;;;;;;;;;;;;;0.73;100.00;103363.53;5096368;28;19957;-77
2023/01/21 12:29:24;;;;;;;;;;;;;;;0.75;100.00;103369.63;5095011;28;19920;-76
2023/01/21 12:31:57;;;;;;;;;;;;;;;0.77;100.00;103374.00;5087602;28;20096;-77
2023/01/21 12:34:34;;;;;;;;;;;;;;;0.80;100.00;103367.22;5096990;28;19924;-77
2023/01/21 12:37:12;;;;;;;;;;;;;;;0.81;100.00;103371.56;5097609;28;19965;-76
2023/01/21 12:39:39;;;;;;;;;;;;;;;0.82;100.00;103378.47;5093760;28;19927;-77
2023/01/21 12:42:11;;;;;;;;;;;;;;;0.83;100.00;103375.09;5096175;28;19921;-77
2023/01/21 12:44:41;;;;;;;;;;;;;;;0.84;100.00;103375.16;5095854;28;19950;-77